Time;durP1;ratioP1;P1;durP2;ratioP2;P2;SDS_P1;SDS_P2;PMS_P1;PMS_P2;Temp;Humidity;BMP_temperature;BMP_pressure;BME280_temperature;BME280_humidity;BME280_pressure;Samples;Min_cycle;Max_cycle;Signal;HPM_P1;HPM_P2
2023/01/09 00:00:14;;;;;;;9.82;4.07;;;;;;;3.65;100.00;99515.84;4975012;28;20552;-42
2023/01/09 00:02:43;;;;;;;5.05;4.07;;;;;;;3.62;100.00;99509.78;4979407;28;20290;-42
2023/01/09 00:05:10;;;;;;;8.00;5.22;;;;;;;3.59;100.00;99499.28;4979858;28;20692;-42
2023/01/09 00:07:36;;;;;;;6.22;4.22;;;;;;;3.62;100.00;99497.38;4985412;28;20490;-42
2023/01/09 00:10:02;;;;;;;5.75;4.30;;;;;;;3.59;100.00;99486.91;4983393;28;20173;-42
2023/01/09 00:12:28;;;;;;;4.68;4.22;;;;;;;3.61;100.00;99492.16;4990499;28;20186;-45
2023/01/09 00:14:53;;;;;;;5.18;4.47;;;;;;;3.58;100.00;99494.88;4984311;28;20207;-42
2023/01/09 00:17:19;;;;;;;7.88;4.82;;;;;;;3.60;100.00;99490.41;4992738;28;20168;-45
2023/01/09 00:19:44;;;;;;;6.78;4.60;;;;;;;3.57;100.00;99482.56;4983385;28;20189;-43
2023/01/09 00:22:10;;;;;;;5.93;4.70;;;;;;;3.55;100.00;99482.63;4974840;28;20244;-42
2023/01/09 00:24:36;;;;;;;6.63;4.82;;;;;;;3.57;100.00;99487.88;4979377;28;20788;-43
2023/01/09 00:27:01;;;;;;;6.50;4.75;;;;;;;3.51;100.00;99488.91;4980701;28;20317;-42
2023/01/09 00:29:27;;;;;;;5.18;4.50;;;;;;;3.51;100.00;99470.38;4978590;28;20174;-44
2023/01/09 00:31:52;;;;;;;6.10;4.50;;;;;;;3.50;100.00;99485.41;4985913;28;20199;-45
2023/01/09 00:34:18;;;;;;;4.93;4.47;;;;;;;3.55;100.00;99479.97;5005516;28;20205;-42
2023/01/09 00:36:43;;;;;;;5.95;4.68;;;;;;;3.54;100.00;99462.31;4979140;28;20205;-42
2023/01/09 00:39:09;;;;;;;6.10;4.50;;;;;;;3.51;100.00;99470.38;4976580;28;20659;-43
2023/01/09 00:41:39;;;;;;;5.20;4.43;;;;;;;3.49;100.00;99473.06;4981135;28;20231;-42
2023/01/09 00:44:11;;;;;;;5.28;4.35;;;;;;;3.47;100.00;99468.75;4976909;28;20206;-43
2023/01/09 00:46:40;;;;;;;5.97;4.90;;;;;;;3.48;100.00;99455.47;4988509;28;20178;-44
2023/01/09 00:49:06;;;;;;;7.07;4.55;;;;;;;3.45;100.00;99467.91;4985431;28;20174;-41
2023/01/09 00:51:32;;;;;;;5.10;4.70;;;;;;;3.47;100.00;99458.16;4988127;28;20674;-43
2023/01/09 00:53:58;;;;;;;5.63;4.43;;;;;;;3.48;100.00;99451.94;4997668;28;20212;-42
2023/01/09 00:56:24;;;;;;;4.90;4.50;;;;;;;3.47;100.00;99447.56;4976956;28;20744;-45
2023/01/09 00:58:51;;;;;;;7.18;4.72;;;;;;;3.46;100.00;99444.03;4977931;28;20189;-47
2023/01/09 01:01:17;;;;;;;8.23;5.32;;;;;;;3.46;100.00;99445.84;4979851;28;20217;-45
2023/01/09 01:03:42;;;;;;;4.90;4.50;;;;;;;3.53;100.00;99447.38;4977908;28;20246;-46
2023/01/09 01:08:54;;;;;;;6.15;4.63;;;;;;;3.46;100.00;99444.03;4978284;28;20201;-47
2023/01/09 01:11:20;;;;;;;5.65;5.15;;;;;;;3.45;100.00;99436.16;4977044;28;20193;-46
2023/01/09 01:13:45;;;;;;;6.88;5.15;;;;;;;3.44;100.00;99426.47;4979899;28;20194;-45
2023/01/09 01:16:11;;;;;;;5.90;5.30;;;;;;;3.44;100.00;99423.84;4975986;28;20275;-46
2023/01/09 01:18:37;;;;;;;6.68;5.00;;;;;;;3.44;100.00;99430.00;4979850;28;20360;-45
2023/01/09 01:21:07;;;;;;;6.03;4.82;;;;;;;3.43;100.00;99430.91;4975895;28;20313;-47
2023/01/09 01:23:33;;;;;;;6.57;4.47;;;;;;;3.44;100.00;99427.34;4973445;28;20194;-47
2023/01/09 01:26:10;;;;;;;6.45;5.18;;;;;;;3.53;100.00;99430.63;4979892;28;20194;-47
2023/01/09 01:28:36;;;;;;;5.90;4.85;;;;;;;3.51;100.00;99434.16;4983829;28;20185;-45
2023/01/09 01:31:02;;;;;;;5.68;5.18;;;;;;;3.45;100.00;99442.28;4976237;28;20199;-45
2023/01/09 01:33:28;;;;;;;5.20;4.80;;;;;;;3.51;100.00;99452.69;4985122;28;20188;-44
2023/01/09 01:36:04;;;;;;;5.03;4.40;;;;;;;3.52;100.00;99445.66;4977463;28;20186;-45
2023/01/09 01:38:31;;;;;;;5.50;4.68;;;;;;;3.46;100.00;99440.53;4992383;28;20221;-45
2023/01/09 01:40:58;;;;;;;6.32;5.38;;;;;;;3.49;100.00;99443.94;4978520;28;21232;-46
2023/01/09 01:43:24;;;;;;;5.90;4.70;;;;;;;3.48;100.00;99433.41;4977672;28;20227;-45
2023/01/09 01:45:49;;;;;;;7.70;5.43;;;;;;;3.43;100.00;99437.97;4978086;28;20197;-46
2023/01/09 01:48:22;;;;;;;6.28;5.10;;;;;;;3.44;100.00;99431.78;4977170;28;20232;-45
2023/01/09 01:50:53;;;;;;;5.45;4.80;;;;;;;3.44;100.00;99431.78;4978802;28;20710;-45
2023/01/09 01:53:36;;;;;;;5.57;4.82;;;;;;;3.46;100.00;99435.25;4978433;28;20182;-46
2023/01/09 01:56:19;;;;;;;5.65;5.15;;;;;;;3.41;100.00;99422.16;4978945;28;20185;-46
2023/01/09 01:59:09;;;;;;;6.80;5.05;;;;;;;3.47;100.00;99431.66;4980052;28;20272;-45
2023/01/09 02:01:39;;;;;;;5.32;4.78;;;;;;;3.41;100.00;99434.50;4978690;28;20683;-46
2023/01/09 02:04:06;;;;;;;7.63;5.32;;;;;;;3.41;100.00;99431.84;4980791;28;20210;-46
2023/01/09 02:06:33;;;;;;;6.43;5.70;;;;;;;3.42;100.00;99434.47;4978615;28;20170;-45
2023/01/09 02:09:02;;;;;;;6.38;5.78;;;;;;;3.46;100.00;99424.66;4973500;28;20616;-43
2023/01/09 02:11:28;;;;;;;7.28;4.72;;;;;;;3.45;100.00;99420.25;4975011;28;20524;-45
2023/01/09 02:13:53;;;;;;;5.47;4.80;;;;;;;3.40;100.00;99422.19;4984738;28;20212;-45
2023/01/09 02:16:41;;;;;;;5.22;4.72;;;;;;;3.40;100.00;99420.41;4975772;28;20209;-46
2023/01/09 02:19:59;;;;;;;5.50;5.00;;;;;;;3.40;100.00;99414.25;4981500;28;20808;-46
2023/01/09 02:22:56;;;;;;;7.03;5.18;;;;;;;3.37;100.00;99404.63;4977337;28;20182;-44
2023/01/09 02:25:59;;;;;;;5.97;5.38;;;;;;;3.39;100.00;99407.22;4979287;28;20214;-45
2023/01/09 02:28:52;;;;;;;6.13;5.55;;;;;;;3.45;100.00;99412.31;4978691;28;20177;-46
2023/01/09 02:31:20;;;;;;;6.63;6.00;;;;;;;3.46;100.00;99392.88;4977590;28;20585;-46
2023/01/09 02:34:13;;;;;;;6.75;5.22;;;;;;;3.52;100.00;99405.94;4980854;28;20688;-44
2023/01/09 02:36:45;;;;;;;6.30;5.35;;;;;;;3.58;100.00;99397.75;4975565;28;20297;-47
2023/01/09 02:39:24;;;;;;;7.45;6.10;;;;;;;3.63;100.00;99392.31;4978474;28;20231;-46
2023/01/09 02:42:24;;;;;;;7.97;5.88;;;;;;;3.67;100.00;99391.28;4975642;28;20616;-46
2023/01/09 02:44:50;;;;;;;6.82;6.03;;;;;;;3.73;100.00;99391.09;4962211;28;20604;-46
2023/01/09 02:47:15;;;;;;;6.20;5.60;;;;;;;3.81;100.00;99406.75;4977965;28;20233;-47
2023/01/09 02:49:50;;;;;;;7.03;6.30;;;;;;;3.83;100.00;99397.81;4975099;28;20252;-44
2023/01/09 02:52:38;;;;;;;8.32;6.72;;;;;;;3.86;100.00;99403.00;4977841;28;20255;-45
2023/01/09 02:55:38;;;;;;;7.78;7.00;;;;;;;3.96;100.00;99402.69;4980666;28;20212;-44
2023/01/09 02:58:22;;;;;;;7.32;6.30;;;;;;;3.95;100.00;99388.59;4949459;28;20585;-45
2023/01/09 03:01:12;;;;;;;7.05;6.35;;;;;;;3.97;100.00;99386.75;4982145;28;20219;-47
2023/01/09 03:03:43;;;;;;;7.68;6.63;;;;;;;3.98;100.00;99385.84;4982419;28;20287;-45
2023/01/09 03:06:18;;;;;;;7.45;6.75;;;;;;;3.97;100.00;99378.81;4977697;28;20189;-45
2023/01/09 03:08:58;;;;;;;9.70;6.57;;;;;;;3.98;100.00;99380.56;4977594;28;20244;-46
2023/01/09 03:11:27;;;;;;;8.77;6.57;;;;;;;4.03;100.00;99372.44;4980704;28;20671;-45
2023/01/09 03:13:56;;;;;;;6.50;5.90;;;;;;;4.05;100.00;99358.22;4979367;28;20570;-46
2023/01/09 03:16:31;;;;;;;7.20;6.50;;;;;;;4.10;100.00;99363.34;4977213;28;20235;-46
2023/01/09 03:18:59;;;;;;;7.95;6.55;;;;;;;4.09;100.00;99362.47;4977947;28;20189;-44
2023/01/09 03:21:25;;;;;;;8.63;6.20;;;;;;;4.15;100.00;99356.09;4978019;28;20327;-48
2023/01/09 03:23:56;;;;;;;10.20;5.95;;;;;;;4.16;100.00;99365.78;4978485;28;20230;-47
2023/01/09 03:26:23;;;;;;;6.97;5.90;;;;;;;4.18;100.00;99366.59;4981270;28;20201;-43
2023/01/09 03:28:49;;;;;;;6.82;5.88;;;;;;;4.22;100.00;99375.28;4980825;28;20231;-46
2023/01/09 03:31:15;;;;;;;6.88;5.97;;;;;;;4.25;100.00;99362.78;4984218;28;20182;-46
2023/01/09 03:33:41;;;;;;;7.13;6.43;;;;;;;4.28;100.00;99352.06;4985828;28;20186;-45
2023/01/09 03:36:08;;;;;;;6.40;5.80;;;;;;;4.36;100.00;99359.75;4978596;28;20695;-46
2023/01/09 03:38:33;;;;;;;7.05;5.97;;;;;;;4.35;100.00;99358.00;4981672;28;20184;-47
2023/01/09 03:41:00;;;;;;;6.53;5.72;;;;;;;4.36;100.00;99359.75;4979114;28;20182;-46
2023/01/09 03:43:25;;;;;;;8.20;5.38;;;;;;;4.34;100.00;99359.81;4976885;28;20201;-46
2023/01/09 03:45:51;;;;;;;7.28;5.95;;;;;;;4.38;100.00;99355.25;4987191;28;20281;-48
2023/01/09 03:48:16;;;;;;;6.78;5.90;;;;;;;4.40;100.00;99355.22;4975091;28;20240;-45
2023/01/09 03:50:44;;;;;;;6.22;5.53;;;;;;;4.42;100.00;99340.97;4984275;28;20319;-46
2023/01/09 03:53:12;;;;;;;6.18;5.60;;;;;;;4.41;100.00;99341.88;4985160;28;20173;-46
2023/01/09 03:55:47;;;;;;;6.35;5.53;;;;;;;4.46;100.00;99339.06;4982158;28;20562;-46
2023/01/09 03:58:13;;;;;;;7.70;5.50;;;;;;;4.51;100.00;99331.81;4998721;23;20281;-45
2023/01/09 04:00:39;;;;;;;5.50;5.00;;;;;;;4.54;100.00;99326.38;4999430;28;20232;-43
2023/01/09 04:03:07;;;;;;;7.47;5.22;;;;;;;4.56;100.00;99336.94;4999312;28;20227;-44
2023/01/09 04:05:32;;;;;;;7.05;4.97;;;;;;;4.54;100.00;99337.84;4999740;28;20240;-44
2023/01/09 04:07:58;;;;;;;5.70;5.20;;;;;;;4.57;100.00;99325.41;5002041;28;20299;-45
2023/01/09 04:10:24;;;;;;;5.55;4.82;;;;;;;4.59;100.00;99328.84;4997411;28;20177;-45
2023/01/09 04:12:49;;;;;;;5.93;5.43;;;;;;;4.60;100.00;99338.56;5001427;28;20173;-46
2023/01/09 04:15:15;;;;;;;6.93;5.68;;;;;;;4.62;100.00;99340.22;4999780;28;20239;-45
2023/01/09 04:17:40;;;;;;;5.63;5.13;;;;;;;4.62;100.00;99342.88;5003692;28;20191;-45
2023/01/09 04:20:06;;;;;;;5.90;5.30;;;;;;;4.64;100.00;99341.03;5000771;28;20228;-45
2023/01/09 04:22:32;;;;;;;7.75;5.40;;;;;;;4.65;100.00;99332.13;5002413;28;20200;-45
2023/01/09 04:24:57;;;;;;;5.50;5.00;;;;;;;4.64;100.00;99348.13;5000014;28;20209;-45
2023/01/09 04:27:23;;;;;;;6.78;5.50;;;;;;;4.66;100.00;99349.81;5007719;28;20212;-45
2023/01/09 04:29:48;;;;;;;5.18;4.68;;;;;;;4.66;100.00;99346.28;4995652;28;20574;-46
2023/01/09 04:32:14;;;;;;;8.57;5.38;;;;;;;4.70;100.00;99353.19;4995758;28;20181;-45
2023/01/09 04:34:39;;;;;;;6.18;5.57;;;;;;;4.70;100.00;99356.72;5004134;28;20198;-42
2023/01/09 04:37:05;;;;;;;6.13;5.55;;;;;;;4.73;100.00;99356.59;5004949;28;20203;-44
2023/01/09 04:39:30;;;;;;;5.78;5.28;;;;;;;4.72;100.00;99346.91;5000211;28;20604;-43
2023/01/09 04:41:56;;;;;;;5.78;5.28;;;;;;;4.70;100.00;99342.56;4998397;28;20666;-45
2023/01/09 04:44:26;;;;;;;6.70;5.90;;;;;;;4.74;100.00;99344.19;4999775;28;20295;-47
2023/01/09 04:46:54;;;;;;;6.05;5.55;;;;;;;4.73;100.00;99353.09;5000744;28;20185;-45
2023/01/09 04:49:20;;;;;;;7.72;5.85;;;;;;;4.70;100.00;99343.47;4998244;28;20275;-45
2023/01/09 04:51:45;;;;;;;8.75;5.82;;;;;;;4.75;100.00;99348.59;4998704;28;20264;-46
2023/01/09 04:54:11;;;;;;;6.43;5.75;;;;;;;4.74;100.00;99344.19;5000703;28;20205;-44
2023/01/09 04:56:36;;;;;;;6.70;6.00;;;;;;;4.75;100.00;99337.97;4996648;28;20631;-45
2023/01/09 04:59:04;;;;;;;6.60;5.78;;;;;;;4.77;100.00;99353.81;4999472;28;20522;-46
2023/01/09 05:01:29;;;;;;;6.65;5.97;;;;;;;4.79;100.00;99352.84;4997611;28;20189;-44
2023/01/09 05:03:55;;;;;;;7.65;6.25;;;;;;;4.79;100.00;99346.66;5000603;28;20204;-44
2023/01/09 05:06:20;;;;;;;8.77;6.05;;;;;;;4.80;100.00;99343.09;4999483;28;20186;-45
2023/01/09 05:08:46;;;;;;;6.82;6.07;;;;;;;4.80;100.00;99336.00;5001132;28;20719;-45
2023/01/09 05:11:11;;;;;;;7.80;6.80;;;;;;;4.80;100.00;99336.00;5005158;28;20193;-45
2023/01/09 05:13:37;;;;;;;6.60;6.00;;;;;;;4.82;100.00;99328.84;5000492;28;20263;-45
2023/01/09 05:16:02;;;;;;;7.20;6.45;;;;;;;4.80;100.00;99333.34;4993875;28;20182;-43
2023/01/09 05:18:28;;;;;;;7.90;6.07;;;;;;;4.79;100.00;99328.09;4995956;28;20189;-44
2023/01/09 05:20:53;;;;;;;6.93;6.03;;;;;;;4.80;100.00;99316.56;5006927;28;20590;-44
2023/01/09 05:23:19;;;;;;;7.78;7.07;;;;;;;4.78;100.00;99329.88;5005047;28;20231;-45
2023/01/09 05:25:44;;;;;;;7.07;6.38;;;;;;;4.76;100.00;99331.72;5002988;28;20262;-45
2023/01/09 05:28:10;;;;;;;7.53;6.72;;;;;;;4.77;100.00;99329.94;4998439;28;20173;-44
2023/01/09 05:30:37;;;;;;;10.85;7.28;;;;;;;4.75;100.00;99333.53;4991884;28;20664;-42
2023/01/09 05:33:02;;;;;;;8.55;7.40;;;;;;;4.74;100.00;99330.91;4992054;28;20317;-43
2023/01/09 05:35:28;;;;;;;10.93;7.30;;;;;;;4.76;100.00;99326.41;4990670;28;20227;-41
2023/01/09 05:37:54;;;;;;;10.68;7.53;;;;;;;4.75;100.00;99338.84;4992053;28;20260;-39
2023/01/09 05:40:20;;;;;;;8.05;7.25;;;;;;;4.78;100.00;99339.63;4991748;28;20170;-38
2023/01/09 05:42:45;;;;;;;8.82;7.35;;;;;;;4.79;100.00;99336.94;4991440;28;20196;-41
2023/01/09 05:45:11;;;;;;;8.77;7.25;;;;;;;4.81;100.00;99334.19;5002265;28;20721;-40
2023/01/09 05:47:36;;;;;;;8.52;7.40;;;;;;;4.83;100.00;99338.56;5010922;28;20522;-41
2023/01/09 05:50:03;;;;;;;7.90;6.80;;;;;;;4.85;100.00;99339.31;5011187;28;20168;-39
2023/01/09 05:52:28;;;;;;;8.27;7.22;;;;;;;4.89;100.00;99340.94;5011318;28;20636;-41
2023/01/09 05:54:54;;;;;;;8.80;7.63;;;;;;;4.90;100.00;99342.69;5007450;28;20284;-40
2023/01/09 05:57:19;;;;;;;8.27;7.47;;;;;;;4.93;100.00;99337.25;4991435;28;20201;-41
2023/01/09 05:59:44;;;;;;;7.95;7.25;;;;;;;4.95;100.00;99342.50;4991203;28;20181;-40
2023/01/09 06:02:10;;;;;;;9.00;7.47;;;;;;;4.93;100.00;99336.38;5006593;28;20836;-41
2023/01/09 06:04:36;;;;;;;7.45;6.80;;;;;;;4.93;100.00;99342.56;5009533;28;20809;-42
2023/01/09 06:07:01;;;;;;;9.45;8.45;;;;;;;4.91;100.00;99340.88;5008773;28;20493;-45
2023/01/09 06:09:27;;;;;;;10.27;7.80;;;;;;;4.91;100.00;99344.41;4991352;28;20524;-42
2023/01/09 06:11:53;;;;;;;11.20;8.07;;;;;;;4.91;100.00;99339.09;4991117;28;20546;-41
2023/01/09 06:14:20;;;;;;;9.38;8.13;;;;;;;4.92;100.00;99348.81;4991086;28;20177;-42
2023/01/09 06:16:45;;;;;;;10.35;7.93;;;;;;;4.95;100.00;99340.72;4991214;28;20248;-40
2023/01/09 06:19:11;;;;;;;9.80;8.65;;;;;;;4.89;100.00;99343.59;4991212;28;20212;-42
2023/01/09 06:21:36;;;;;;;9.70;7.30;;;;;;;4.91;100.00;99336.44;4990953;28;20173;-44
2023/01/09 06:24:02;;;;;;;8.75;7.18;;;;;;;4.94;100.00;99354.03;5001391;28;20308;-41
2023/01/09 06:26:27;;;;;;;11.38;8.65;;;;;;;4.91;100.00;99348.84;5010528;28;20631;-41
2023/01/09 06:28:56;;;;;;;10.77;8.10;;;;;;;4.92;100.00;99361.22;4999186;28;20205;-43
2023/01/09 06:31:22;;;;;;;11.35;8.95;;;;;;;4.93;100.00;99349.66;5004459;28;20556;-42
2023/01/09 06:33:48;;;;;;;10.65;8.93;;;;;;;4.89;100.00;99362.16;4999282;28;20341;-44
2023/01/09 06:36:14;;;;;;;10.68;8.27;;;;;;;4.88;100.00;99359.59;5003906;28;20550;-41
2023/01/09 06:38:39;;;;;;;9.82;7.88;;;;;;;4.88;100.00;99368.41;5009967;28;20165;-43
2023/01/09 06:41:05;;;;;;;9.40;7.90;;;;;;;4.89;100.00;99374.59;5011540;28;20184;-43
2023/01/09 06:43:30;;;;;;;8.45;7.55;;;;;;;4.86;100.00;99361.44;5010488;28;20721;-40
2023/01/09 06:45:56;;;;;;;11.60;8.02;;;;;;;4.87;100.00;99369.31;5006743;28;20267;-43
2023/01/09 06:48:23;;;;;;;8.05;7.25;;;;;;;4.85;100.00;99373.81;5009622;28;20248;-41
2023/01/09 06:50:50;;;;;;;8.32;7.18;;;;;;;4.85;100.00;99373.81;5010688;28;20587;-41
2023/01/09 06:53:16;;;;;;;7.28;6.57;;;;;;;4.87;100.00;99376.44;5010369;28;20629;-44
2023/01/09 06:55:42;;;;;;;7.78;6.97;;;;;;;4.88;100.00;99373.72;5011053;28;20200;-45
2023/01/09 06:58:08;;;;;;;9.65;7.32;;;;;;;4.88;100.00;99373.72;5014146;28;20933;-44
2023/01/09 07:00:33;;;;;;;8.27;6.82;;;;;;;4.87;100.00;99373.78;5013956;28;20169;-43
2023/01/09 07:02:59;;;;;;;7.05;6.30;;;;;;;4.86;100.00;99377.38;5013977;28;20635;-41
2023/01/09 07:05:25;;;;;;;7.63;6.22;;;;;;;4.80;100.00;99388.22;5013965;28;20224;-42
2023/01/09 07:07:50;;;;;;;8.02;5.85;;;;;;;4.82;100.00;99392.53;5014085;28;20165;-42
2023/01/09 07:10:16;;;;;;;11.32;6.05;;;;;;;4.82;100.00;99384.56;5014294;28;20173;-41
2023/01/09 07:12:41;;;;;;;6.50;5.80;;;;;;;4.86;100.00;99374.72;5013805;28;20560;-41
2023/01/09 07:15:07;;;;;;;6.50;5.70;;;;;;;4.82;100.00;99368.66;5012275;28;20657;-44
2023/01/09 07:17:33;;;;;;;6.82;5.82;;;;;;;4.81;100.00;99369.59;5012612;28;20663;-41
2023/01/09 07:19:59;;;;;;;7.00;6.30;;;;;;;4.76;100.00;99368.88;5014301;28;20168;-40
2023/01/09 07:22:25;;;;;;;8.15;7.32;;;;;;;4.78;100.00;99368.81;5010065;28;20223;-42
2023/01/09 07:24:50;;;;;;;8.90;8.00;;;;;;;4.76;100.00;99374.19;5013657;28;20212;-41
2023/01/09 07:27:16;;;;;;;9.32;8.00;;;;;;;4.79;100.00;99366.13;5014053;28;20580;-44
2023/01/09 07:29:41;;;;;;;11.60;9.23;;;;;;;4.80;100.00;99377.59;5013819;28;20172;-43
2023/01/09 07:32:07;;;;;;;12.82;9.52;;;;;;;4.81;100.00;99374.00;5009039;28;20224;-41
2023/01/09 07:34:32;;;;;;;9.38;8.43;;;;;;;4.82;100.00;99384.56;4993975;28;20196;-41
2023/01/09 07:36:58;;;;;;;10.38;9.07;;;;;;;4.80;100.00;99386.41;4993812;28;20177;-43
2023/01/09 07:39:23;;;;;;;12.90;9.70;;;;;;;4.81;100.00;99397.88;4994317;28;20158;-43
2023/01/09 07:41:48;;;;;;;12.85;10.10;;;;;;;4.80;100.00;99388.22;4995999;28;20185;-43
2023/01/09 07:44:14;;;;;;;12.07;10.40;;;;;;;4.74;100.00;99389.28;5005221;28;20200;-43
2023/01/09 07:46:40;;;;;;;11.27;10.10;;;;;;;4.71;100.00;99405.34;5007540;28;20292;-41
2023/01/09 07:49:06;;;;;;;11.95;10.30;;;;;;;4.71;100.00;99397.38;4999235;28;20178;-42
2023/01/09 07:51:31;;;;;;;12.80;10.10;;;;;;;4.72;100.00;99393.78;5003180;28;20185;-43
2023/01/09 07:53:57;;;;;;;10.98;9.73;;;;;;;4.68;100.00;99403.66;5001145;28;20193;-38
2023/01/09 07:56:22;;;;;;;10.65;8.93;;;;;;;4.68;100.00;99408.97;4999343;28;20667;-40
2023/01/09 07:58:48;;;;;;;10.45;9.35;;;;;;;4.70;100.00;99412.44;4998834;28;20285;-39
2023/01/09 08:01:14;;;;;;;10.05;9.00;;;;;;;4.64;100.00;99415.31;4999762;28;20384;-41
2023/01/09 08:03:39;;;;;;;8.55;7.75;;;;;;;4.66;100.00;99416.13;4999262;28;20636;-39
2023/01/09 08:06:05;;;;;;;9.32;8.30;;;;;;;4.64;100.00;99415.31;5000779;28;20180;-42
2023/01/09 08:08:31;;;;;;;8.80;7.90;;;;;;;4.69;100.00;99428.41;4998834;28;20197;-42
2023/01/09 08:10:56;;;;;;;8.85;7.72;;;;;;;4.63;100.00;99428.63;5000767;28;20188;-41
2023/01/09 08:13:21;;;;;;;8.50;7.60;;;;;;;4.60;100.00;99426.09;5001028;28;20185;-42
2023/01/09 08:15:47;;;;;;;6.40;5.80;;;;;;;4.62;100.00;99445.47;5005329;28;20224;-41
2023/01/09 08:18:12;;;;;;;6.30;5.70;;;;;;;4.61;100.00;99433.13;4999524;28;20203;-40
2023/01/09 08:20:41;;;;;;;6.20;5.35;;;;;;;4.61;100.00;99435.75;5000030;28;20555;-40
2023/01/09 08:23:06;;;;;;;12.32;5.78;;;;;;;4.64;100.00;99446.28;4999132;28;20200;-41
2023/01/09 08:25:32;;;;;;;7.68;5.38;;;;;;;4.54;100.00;99445.72;4999199;28;20700;-41
2023/01/09 08:27:57;;;;;;;6.72;4.85;;;;;;;4.53;100.00;99450.19;4996850;28;20609;-42
2023/01/09 08:30:23;;;;;;;5.28;4.75;;;;;;;4.57;100.00;99455.34;5000527;28;20281;-39
2023/01/09 08:32:53;;;;;;;6.63;4.70;;;;;;;4.58;100.00;99457.09;4997984;28;20212;-41
2023/01/09 08:35:19;;;;;;;5.97;4.40;;;;;;;4.61;100.00;99460.50;5005142;28;20205;-43
2023/01/09 08:37:46;;;;;;;4.43;3.72;;;;;;;4.58;100.00;99457.97;5019680;23;20590;-45
2023/01/09 08:40:13;;;;;;;8.73;4.28;;;;;;;4.50;100.00;99454.72;4994056;28;20189;-41
2023/01/09 08:48:07;;;;;;;4.55;3.70;;;;;;;4.51;100.00;99459.97;4994266;28;20670;-45
2023/01/09 08:50:32;;;;;;;4.85;3.63;;;;;;;4.50;100.00;99462.66;5001002;28;20185;-41
2023/01/09 08:52:58;;;;;;;3.50;3.20;;;;;;;4.51;100.00;99469.72;4994166;28;20177;-43
2023/01/09 08:55:24;;;;;;;3.67;3.15;;;;;;;4.57;100.00;99479.22;4994698;28;20221;-43
2023/01/09 08:57:51;;;;;;;5.00;3.38;;;;;;;4.54;100.00;99473.13;4992062;28;20232;-42
2023/01/09 09:00:18;;;;;;;3.33;3.03;;;;;;;4.56;100.00;99475.72;4992442;28;20244;-43
2023/01/09 09:02:44;;;;;;;5.65;3.65;;;;;;;4.58;100.00;99476.53;4991377;28;20624;-42
2023/01/09 09:05:10;;;;;;;6.32;3.70;;;;;;;4.58;100.00;99476.53;4993382;28;20212;-41
2023/01/09 09:07:35;;;;;;;3.90;3.45;;;;;;;4.65;100.00;99477.19;4992384;28;20182;-41
2023/01/09 09:10:01;;;;;;;3.50;3.20;;;;;;;4.69;100.00;99492.06;4993752;28;20610;-44
2023/01/09 09:12:27;;;;;;;4.97;3.25;;;;;;;4.75;100.00;99473.28;5004514;28;20220;-43
2023/01/09 09:17:36;;;;;;;5.72;3.85;;;;;;;4.89;100.00;99491.34;5000906;28;20185;-43
2023/01/09 09:20:02;;;;;;;4.43;3.95;;;;;;;4.94;100.00;99482.31;4994919;28;20181;-43
2023/01/09 09:22:28;;;;;;;5.53;4.20;;;;;;;5.03;100.00;99488.19;4995765;28;20186;-44
2023/01/09 09:24:53;;;;;;;5.70;4.80;;;;;;;5.01;100.00;99484.72;4993505;28;20243;-43
2023/01/09 09:27:19;;;;;;;6.68;4.72;;;;;;;5.12;100.00;99485.22;4992575;28;20181;-43
2023/01/09 09:29:44;;;;;;;6.07;5.47;;;;;;;5.21;100.00;99489.31;4995082;28;20192;-44
2023/01/09 09:32:10;;;;;;;7.00;6.30;;;;;;;5.26;100.00;99488.19;4993428;28;20200;-42
2023/01/09 09:34:36;;;;;;;8.02;6.38;;;;;;;5.32;100.00;99492.41;4995206;28;20228;-44
2023/01/09 09:37:01;;;;;;;6.47;5.80;;;;;;;5.34;100.00;99491.41;4995769;28;20304;-43
2023/01/09 09:39:27;;;;;;;7.00;6.30;;;;;;;5.39;100.00;99491.25;4995631;28;20189;-43
2023/01/09 09:45:25;;;;;;;8.07;7.18;;;;;;;5.36;100.00;99496.69;4991911;28;20566;-42
2023/01/09 09:48:15;;;;;;;8.00;7.10;;;;;;;5.43;100.00;99498.16;4995008;28;20189;-44
2023/01/09 09:51:25;;;;;;;9.05;7.32;;;;;;;5.43;100.00;99498.16;4999566;28;20223;-42
2023/01/09 09:54:06;;;;;;;9.18;7.38;;;;;;;5.50;100.00;99497.00;4980231;28;20656;-41
2023/01/09 09:56:40;;;;;;;13.45;8.48;;;;;;;5.49;100.00;99503.25;4994570;28;20189;-43
2023/01/09 09:59:18;;;;;;;10.98;7.85;;;;;;;5.50;100.00;99504.09;5012950;23;20712;-47
2023/01/09 10:01:56;;;;;;;10.27;8.02;;;;;;;5.47;100.00;99504.25;5017093;28;20230;-48
2023/01/09 10:04:24;;;;;;;9.55;8.55;;;;;;;5.57;100.00;99501.16;5010202;28;20305;-47
2023/01/09 10:06:56;;;;;;;12.48;8.10;;;;;;;5.53;100.00;99504.88;5016114;28;20273;-47
2023/01/09 10:09:33;;;;;;;11.43;7.88;;;;;;;5.55;100.00;99503.03;5013541;28;20184;-47
2023/01/09 10:12:07;;;;;;;10.60;7.75;;;;;;;5.62;100.00;99501.00;5010250;28;20198;-45
2023/01/09 10:14:33;;;;;;;11.82;7.93;;;;;;;5.65;100.00;99510.63;5013013;28;20227;-47
2023/01/09 10:17:18;;;;;;;12.73;8.30;;;;;;;5.61;100.00;99511.66;5010405;28;20263;-49
2023/01/09 10:20:05;;;;;;;12.30;8.05;;;;;;;5.61;100.00;99498.38;5008949;28;20168;-45
2023/01/09 10:22:55;;;;;;;16.67;12.65;;;;;;;5.74;100.00;99492.50;5000946;28;20578;-47
2023/01/09 10:25:29;;;;;;;11.38;7.43;;;;;;;5.65;100.00;99494.69;5004088;28;20304;-46
2023/01/09 10:28:03;;;;;;;11.50;7.57;;;;;;;5.61;100.00;99499.25;5011767;28;20180;-49
2023/01/09 10:30:43;;;;;;;10.30;7.57;;;;;;;5.69;100.00;99499.81;5008649;28;20634;-47
2023/01/09 10:33:14;;;;;;;9.32;7.38;;;;;;;5.78;100.00;99498.56;5014323;28;20188;-47
2023/01/09 10:36:05;;;;;;;12.43;7.10;;;;;;;5.95;100.00;99503.25;5016865;28;20205;-47
2023/01/09 10:38:35;;;;;;;12.57;7.72;;;;;;;5.90;100.00;99498.09;5010383;28;20184;-47
2023/01/09 10:41:07;;;;;;;11.07;7.50;;;;;;;5.89;100.00;99500.81;5021353;28;20169;-47
2023/01/09 10:43:44;;;;;;;10.80;8.15;;;;;;;5.76;100.00;99503.94;5009412;28;20286;-46
2023/01/09 10:46:17;;;;;;;12.93;7.68;;;;;;;5.82;100.00;99500.19;4998640;28;20189;-47
2023/01/09 10:48:52;;;;;;;11.73;8.10;;;;;;;5.89;100.00;99500.81;5010822;28;20172;-47
2023/01/09 10:51:39;;;;;;;19.00;8.25;;;;;;;5.91;100.00;99498.97;5011538;28;20274;-47
2023/01/09 10:54:12;;;;;;;15.75;7.82;;;;;;;5.83;100.00;99509.88;5020222;28;20231;-48
2023/01/09 10:56:43;;;;;;;11.65;7.20;;;;;;;5.78;100.00;99507.41;5010445;28;20235;-47
2023/01/09 10:59:09;;;;;;;11.45;6.45;;;;;;;5.86;100.00;99504.47;5012312;28;20246;-47
2023/01/09 11:01:38;;;;;;;11.63;7.03;;;;;;;5.82;100.00;99515.28;5013290;28;20184;-49
2023/01/09 11:04:33;;;;;;;10.05;7.50;;;;;;;5.91;100.00;99502.47;5014442;28;20247;-48
2023/01/09 11:07:20;;;;;;;8.57;6.45;;;;;;;6.02;100.00;99512.69;5006925;28;20288;-48
2023/01/09 11:10:07;;;;;;;10.85;6.32;;;;;;;6.02;100.00;99503.88;5000460;28;20201;-47
2023/01/09 11:12:34;;;;;;;10.20;6.38;;;;;;;6.01;100.00;99507.44;5003947;28;20223;-47
2023/01/09 11:15:15;;;;;;;8.65;6.55;;;;;;;5.99;100.00;99512.81;5010817;28;20643;-49
2023/01/09 11:17:41;;;;;;;11.38;6.85;;;;;;;5.87;100.00;99515.94;5009137;28;20178;-46
2023/01/09 11:20:27;;;;;;;12.85;7.20;;;;;;;5.75;100.00;99506.66;5015245;28;20193;-45
2023/01/09 11:22:57;;;;;;;13.73;6.50;;;;;;;5.68;100.00;99516.66;5013447;28;20192;-46
2023/01/09 11:25:28;;;;;;;12.55;6.78;;;;;;;5.61;100.00;99516.97;5008284;28;20541;-48
2023/01/09 11:28:02;;;;;;;10.93;6.38;;;;;;;5.57;100.00;99524.19;5020187;28;20739;-47
2023/01/09 11:30:29;;;;;;;12.18;6.20;;;;;;;5.70;100.00;99527.25;5004473;28;20742;-46
2023/01/09 11:32:57;;;;;;;12.07;6.75;;;;;;;5.55;100.00;99534.91;4994347;28;20723;-47
2023/01/09 11:35:31;;;;;;;10.18;6.28;;;;;;;5.61;100.00;99525.81;5006879;28;20679;-46
2023/01/09 11:38:03;;;;;;;13.07;6.95;;;;;;;5.64;100.00;99533.69;5009201;28;20184;-46
2023/01/09 11:40:35;;;;;;;11.85;6.55;;;;;;;5.74;100.00;99543.00;5018493;28;20218;-47
2023/01/09 11:43:11;;;;;;;12.02;5.90;;;;;;;5.71;100.00;99534.31;5014426;28;20501;-47
2023/01/09 11:45:47;;;;;;;12.95;5.68;;;;;;;5.68;100.00;99535.25;5014738;28;20208;-47
2023/01/09 11:48:34;;;;;;;11.35;5.68;;;;;;;5.63;100.00;99547.00;5018583;28;20176;-48
2023/01/09 11:51:03;;;;;;;12.10;5.78;;;;;;;5.70;100.00;99546.69;5009936;28;20639;-46
2023/01/09 11:53:47;;;;;;;8.60;4.88;;;;;;;5.68;100.00;99539.72;5010331;28;20255;-46
2023/01/09 11:56:15;;;;;;;13.40;5.53;;;;;;;5.60;100.00;99539.16;5008312;28;20655;-46